aviador You're here:

KDYB Decoded Metar

in
Report Time2017-12-16 18:35:00
UTC Time2017-12-16 18:45:40
Flight Rules vfr VFR
WindCalm
Visibility9999 m
Phenomena:N/A
Clouds:N/A
Expected CloudBase > 4,800 ft AGL from Temp-Dew spread
CeilingNone
Temp11°C
Dew Point-1°C (44% RH)
AAT8.9°C
QNH1025 hPa
Raw Report
METAR KDYB 161835Z AUTO 00000KT 10SM CLR 11/M01 A3027 RMK AO1=

Extra information for KDYB:More info

Social comments